createdAt,value
2018-03-19T00:00:38.416Z,99.90
2018-03-19T00:03:04.904Z,99.90
2018-03-19T00:05:31.302Z,99.90
2018-03-19T00:07:58.471Z,99.90
2018-03-19T00:10:25.792Z,99.90
2018-03-19T00:12:52.202Z,99.90
2018-03-19T00:15:18.598Z,99.90
2018-03-19T00:17:45.024Z,99.90
2018-03-19T00:20:19.118Z,99.50
2018-03-19T00:22:45.566Z,99.50
2018-03-19T00:25:12.748Z,98.80
2018-03-19T00:27:39.273Z,98.70
2018-03-19T00:30:05.722Z,99.90
2018-03-19T00:32:32.115Z,97.60
2018-03-19T00:34:59.197Z,99.90
2018-03-19T00:37:25.872Z,98.10
2018-03-19T00:39:52.407Z,99.90
2018-03-19T00:42:18.938Z,98.80
2018-03-19T00:44:45.378Z,99.70
2018-03-19T00:47:11.770Z,99.90
2018-03-19T00:49:38.177Z,96.90
2018-03-19T00:52:04.594Z,93.20
2018-03-19T00:54:31.004Z,94.80
2018-03-19T00:56:57.497Z,95.40
2018-03-19T00:59:24.077Z,92.60
2018-03-19T01:01:50.495Z,95.40
2018-03-19T01:04:16.918Z,93.30
2018-03-19T01:06:43.360Z,93.20
2018-03-19T01:09:09.770Z,91.20
2018-03-19T01:11:36.242Z,90.30
2018-03-19T01:14:03.594Z,89.60
2018-03-19T01:16:30.130Z,89.60
2018-03-19T01:18:57.310Z,86.40
2018-03-19T01:21:24.474Z,88.00
2018-03-19T01:23:50.972Z,88.00
2018-03-19T01:26:17.607Z,85.50
2018-03-19T01:28:44.812Z,88.10
2018-03-19T01:31:18.192Z,88.10
2018-03-19T01:33:44.842Z,89.70
2018-03-19T01:36:11.356Z,86.50
2018-03-19T01:38:38.505Z,84.20
2018-03-19T01:41:05.084Z,84.20
2018-03-19T01:43:31.470Z,87.70
2018-03-19T01:45:58.180Z,88.80
2018-03-19T01:48:25.371Z,85.00
2018-03-19T01:50:52.723Z,90.30
2018-03-19T01:53:19.155Z,90.30
2018-03-19T01:55:45.594Z,90.90
2018-03-19T01:58:12.192Z,87.80
2018-03-19T02:03:12.413Z,85.20
2018-03-19T02:05:38.890Z,88.10
2018-03-19T02:08:05.361Z,85.90
2018-03-19T02:10:31.804Z,90.10
2018-03-19T02:12:58.227Z,83.90
2018-03-19T02:15:24.796Z,85.30
2018-03-19T02:17:51.249Z,88.50
2018-03-19T02:20:17.727Z,88.70
2018-03-19T02:22:44.136Z,89.40
2018-03-19T02:25:10.614Z,91.00
2018-03-19T02:27:37.132Z,91.70
2018-03-19T02:30:03.603Z,91.10
2018-03-19T02:32:30.043Z,90.60
2018-03-19T02:34:57.182Z,83.60
2018-03-19T02:37:23.716Z,83.50
2018-03-19T02:39:50.357Z,88.30
2018-03-19T02:42:16.894Z,85.60
2018-03-19T02:44:43.410Z,83.70
2018-03-19T02:47:10.680Z,88.00
2018-03-19T02:49:37.074Z,87.90
2018-03-19T02:52:03.551Z,90.70
2018-03-19T02:54:30.745Z,90.90
2018-03-19T02:56:57.606Z,90.90
2018-03-19T02:59:24.102Z,91.10
2018-03-19T03:01:50.536Z,91.80
2018-03-19T03:04:17.048Z,92.30
2018-03-19T03:06:44.302Z,92.50
2018-03-19T03:09:10.799Z,92.50
2018-03-19T03:11:37.223Z,93.20
2018-03-19T03:14:03.776Z,94.30
2018-03-19T03:16:30.235Z,94.40
2018-03-19T03:18:56.664Z,95.20
2018-03-19T03:21:23.794Z,97.60
2018-03-19T03:23:50.202Z,97.50
2018-03-19T03:26:16.652Z,98.40
2018-03-19T03:28:43.044Z,97.90
2018-03-19T03:31:09.487Z,98.40
2018-03-19T03:33:35.868Z,98.60
2018-03-19T03:36:02.379Z,99.00
2018-03-19T03:38:28.811Z,98.90
2018-03-19T03:40:55.231Z,99.50
2018-03-19T03:43:21.711Z,99.80
2018-03-19T03:45:48.200Z,99.90
2018-03-19T03:48:14.582Z,99.90
2018-03-19T03:50:41.024Z,99.90
2018-03-19T03:53:08.360Z,99.90
2018-03-19T03:55:35.613Z,99.90
2018-03-19T03:58:02.010Z,99.90
2018-03-19T04:00:28.462Z,99.90
2018-03-19T04:02:55.093Z,99.90
2018-03-19T04:05:21.657Z,99.90
2018-03-19T04:07:48.827Z,99.90
2018-03-19T04:10:16.056Z,99.90
2018-03-19T04:12:42.449Z,99.90
2018-03-19T04:17:42.101Z,99.90
2018-03-19T04:20:08.623Z,99.90
2018-03-19T04:22:35.103Z,99.90
2018-03-19T04:25:02.257Z,99.90
2018-03-19T04:27:29.417Z,99.90
2018-03-19T04:29:55.823Z,99.90
2018-03-19T04:32:22.224Z,99.90
2018-03-19T04:34:48.752Z,99.90
2018-03-19T04:37:15.162Z,99.90
2018-03-19T04:39:41.552Z,99.90
2018-03-19T04:42:08.054Z,99.90
2018-03-19T04:44:34.496Z,99.90
2018-03-19T04:47:00.883Z,99.90
2018-03-19T04:49:27.297Z,99.90
2018-03-19T04:51:54.415Z,99.90
2018-03-19T04:54:20.815Z,99.90
2018-03-19T04:56:47.259Z,99.90
2018-03-19T04:59:13.707Z,93.40
2018-03-19T05:01:40.260Z,96.20
2018-03-19T05:04:06.754Z,95.70
2018-03-19T05:06:34.047Z,95.70
2018-03-19T05:09:01.198Z,99.10
2018-03-19T05:11:27.637Z,99.10
2018-03-19T05:13:55.765Z,99.90
2018-03-19T05:16:22.756Z,99.90
2018-03-19T05:18:49.221Z,99.90
2018-03-19T05:21:15.613Z,99.90
2018-03-19T05:23:42.005Z,99.90
2018-03-19T05:26:08.502Z,99.90
2018-03-19T05:28:35.650Z,99.90
2018-03-19T05:31:02.777Z,99.90
2018-03-19T05:33:29.190Z,99.90
2018-03-19T05:35:55.768Z,99.90
2018-03-19T05:38:22.898Z,99.90
2018-03-19T05:40:49.330Z,99.90
2018-03-19T05:43:16.644Z,99.90
2018-03-19T05:45:43.066Z,99.90
2018-03-19T05:48:09.580Z,99.80
2018-03-19T05:50:36.359Z,98.50
2018-03-19T05:53:02.929Z,97.40
2018-03-19T05:55:29.354Z,96.30
2018-03-19T05:57:56.102Z,96.00
2018-03-19T06:00:22.554Z,96.00
2018-03-19T06:02:49.018Z,93.90
2018-03-19T06:05:15.466Z,94.50
2018-03-19T06:07:41.870Z,93.90
2018-03-19T06:10:08.469Z,95.50
2018-03-19T06:12:35.638Z,95.80
2018-03-19T06:15:02.974Z,94.70
2018-03-19T06:17:30.159Z,94.10
2018-03-19T06:19:56.605Z,94.10
2018-03-19T06:22:23.197Z,95.50
2018-03-19T06:24:49.665Z,97.20
2018-03-19T06:27:16.114Z,97.10
2018-03-19T06:29:42.517Z,96.80
2018-03-19T06:32:09.064Z,97.20
2018-03-19T06:34:35.521Z,96.20
2018-03-19T06:37:01.930Z,96.10
2018-03-19T06:39:28.396Z,96.70
2018-03-19T06:41:54.868Z,97.00
2018-03-19T06:44:21.279Z,97.90
2018-03-19T06:46:47.745Z,97.70
2018-03-19T06:49:14.892Z,96.80
2018-03-19T06:51:41.321Z,96.80
2018-03-19T06:54:08.514Z,96.20
2018-03-19T06:56:34.934Z,96.20
2018-03-19T06:59:01.370Z,95.30
2018-03-19T07:01:27.787Z,91.20
2018-03-19T07:03:54.931Z,88.20
2018-03-19T07:06:22.188Z,86.30
2018-03-19T07:08:49.384Z,83.80
2018-03-19T07:11:15.783Z,83.80
2018-03-19T07:13:42.355Z,80.30
2018-03-19T07:16:08.916Z,75.20
2018-03-19T07:18:36.082Z,68.50
2018-03-19T07:21:02.500Z,68.50
2018-03-19T07:23:28.988Z,62.40
2018-03-19T07:25:55.425Z,62.30
2018-03-19T07:28:21.833Z,61.30
2018-03-19T07:30:48.271Z,57.40
2018-03-19T07:33:14.661Z,55.20
2018-03-19T07:35:41.108Z,53.40
2018-03-19T07:38:07.709Z,52.80
2018-03-19T07:40:34.271Z,54.60
2018-03-19T07:43:00.688Z,55.40
2018-03-19T07:45:27.146Z,55.80
2018-03-19T07:47:53.550Z,53.80
2018-03-19T07:50:20.012Z,54.00
2018-03-19T07:55:44.703Z,52.40
2018-03-19T07:58:11.150Z,51.60
2018-03-19T08:00:37.575Z,52.10
2018-03-19T08:03:04.021Z,51.40
2018-03-19T08:05:30.448Z,52.50
2018-03-19T08:07:57.186Z,52.60
2018-03-19T08:10:24.451Z,53.70
2018-03-19T08:12:51.985Z,51.10
2018-03-19T08:15:18.539Z,51.00
2018-03-19T08:17:47.707Z,49.10
2018-03-19T08:20:14.919Z,49.10
2018-03-19T08:22:41.379Z,49.20
2018-03-19T08:25:08.475Z,49.50
2018-03-19T08:27:35.106Z,48.00
2018-03-19T08:30:01.544Z,47.80
2018-03-19T08:32:28.783Z,48.30
2018-03-19T08:34:56.964Z,48.40
2018-03-19T08:37:24.310Z,48.30
2018-03-19T08:39:50.850Z,48.30
2018-03-19T08:42:17.292Z,50.10
2018-03-19T08:44:43.751Z,49.20
2018-03-19T08:47:11.260Z,48.00
2018-03-19T08:49:37.841Z,48.70
2018-03-19T08:52:05.125Z,51.10
2018-03-19T08:54:32.460Z,50.70
2018-03-19T08:56:59.661Z,50.70
2018-03-19T08:59:26.101Z,49.30
2018-03-19T09:01:52.667Z,48.00
2018-03-19T09:04:20.042Z,48.10
2018-03-19T09:06:47.961Z,48.10
2018-03-19T09:09:15.177Z,47.70
2018-03-19T09:11:41.606Z,47.70
2018-03-19T09:14:08.135Z,47.80
2018-03-19T09:16:34.726Z,47.20
2018-03-19T09:19:02.049Z,44.30
2018-03-19T09:21:28.530Z,44.20
2018-03-19T09:23:54.988Z,44.40
2018-03-19T09:26:21.379Z,44.40
2018-03-19T09:28:47.792Z,44.90
2018-03-19T09:31:15.088Z,46.60
2018-03-19T09:33:41.489Z,45.90
2018-03-19T09:36:07.899Z,44.90
2018-03-19T09:38:34.354Z,44.40
2018-03-19T09:41:00.764Z,43.20
2018-03-19T09:43:27.164Z,43.20
2018-03-19T09:45:53.622Z,43.10
2018-03-19T09:48:20.073Z,43.60
2018-03-19T09:50:46.467Z,42.40
2018-03-19T09:53:12.967Z,42.00
2018-03-19T09:55:39.401Z,41.10
2018-03-19T09:58:06.545Z,42.60
2018-03-19T10:00:33.094Z,42.50
2018-03-19T10:03:00.262Z,42.70
2018-03-19T10:05:26.674Z,42.70
2018-03-19T10:07:53.900Z,43.30
2018-03-19T10:10:20.330Z,43.30
2018-03-19T10:12:46.744Z,43.30
2018-03-19T10:15:13.234Z,42.80
2018-03-19T10:17:40.363Z,42.80
2018-03-19T10:20:06.817Z,42.80
2018-03-19T10:22:33.251Z,42.90
2018-03-19T10:24:59.963Z,43.40
2018-03-19T10:27:27.181Z,42.40
2018-03-19T10:29:53.803Z,42.40
2018-03-19T10:32:20.210Z,43.20
2018-03-19T10:34:46.706Z,42.20
2018-03-19T10:37:13.252Z,43.00
2018-03-19T10:39:39.788Z,43.00
2018-03-19T10:42:06.990Z,42.30
2018-03-19T10:44:33.469Z,42.30
2018-03-19T10:46:59.897Z,42.20
2018-03-19T10:49:26.347Z,42.70
2018-03-19T10:51:53.669Z,41.30
2018-03-19T10:54:20.149Z,41.30
2018-03-19T10:56:46.651Z,42.00
2018-03-19T10:59:13.118Z,42.80
2018-03-19T11:01:42.201Z,41.20
2018-03-19T11:04:10.430Z,40.90
2018-03-19T11:06:36.911Z,40.90
2018-03-19T11:09:10.227Z,41.80
2018-03-19T11:11:37.395Z,41.30
2018-03-19T11:14:03.958Z,41.30
2018-03-19T11:16:30.433Z,43.00
2018-03-19T11:18:57.053Z,42.20
2018-03-19T11:21:24.194Z,42.90
2018-03-19T11:23:50.614Z,42.80
2018-03-19T11:26:17.056Z,42.50
2018-03-19T11:28:43.500Z,43.20
2018-03-19T11:31:10.676Z,43.20
2018-03-19T11:33:37.869Z,43.60
2018-03-19T11:36:04.335Z,43.60
2018-03-19T11:38:30.719Z,43.60
2018-03-19T11:40:57.278Z,44.10
2018-03-19T11:43:23.685Z,42.70
2018-03-19T11:45:50.258Z,42.40
2018-03-19T11:48:16.685Z,43.10
2018-03-19T11:50:43.136Z,44.70
2018-03-19T11:53:09.584Z,44.70
2018-03-19T11:55:36.102Z,43.90
2018-03-19T11:58:02.689Z,43.40
2018-03-19T12:00:29.104Z,43.40
2018-03-19T12:02:55.576Z,44.10
2018-03-19T12:05:21.999Z,44.30
2018-03-19T12:07:48.399Z,45.80
2018-03-19T12:10:15.611Z,45.50
2018-03-19T12:12:42.014Z,45.50
2018-03-19T12:15:08.407Z,44.90
2018-03-19T12:17:35.004Z,45.70
2018-03-19T12:20:01.561Z,46.50
2018-03-19T12:22:28.067Z,46.00
2018-03-19T12:24:54.508Z,45.10
2018-03-19T12:27:20.959Z,46.00
2018-03-19T12:29:47.459Z,46.40
2018-03-19T12:32:13.965Z,47.20
2018-03-19T12:34:40.368Z,48.20
2018-03-19T12:37:06.889Z,47.00
2018-03-19T12:39:33.334Z,46.80
2018-03-19T12:42:00.540Z,48.10
2018-03-19T12:44:27.120Z,48.10
2018-03-19T12:46:54.342Z,47.90
2018-03-19T12:49:20.741Z,47.90
2018-03-19T12:51:47.933Z,51.70
2018-03-19T12:54:14.371Z,51.70
2018-03-19T12:56:40.767Z,50.00
2018-03-19T12:59:07.164Z,48.60
2018-03-19T13:01:34.375Z,48.40
2018-03-19T13:04:00.834Z,48.30
2018-03-19T13:06:27.374Z,48.90
2018-03-19T13:08:53.810Z,51.30
2018-03-19T13:11:20.228Z,50.50
2018-03-19T13:13:46.631Z,49.40
2018-03-19T13:16:13.077Z,50.00
2018-03-19T13:18:39.609Z,50.40
2018-03-19T13:21:06.172Z,48.60
2018-03-19T13:23:32.683Z,49.60
2018-03-19T13:25:59.074Z,49.60
2018-03-19T13:28:25.544Z,50.20
2018-03-19T13:30:52.196Z,49.60
2018-03-19T13:33:18.748Z,49.00
2018-03-19T13:35:45.157Z,49.90
2018-03-19T13:38:11.596Z,50.00
2018-03-19T13:40:38.049Z,51.80
2018-03-19T13:43:05.344Z,51.20
2018-03-19T13:45:31.835Z,51.10
2018-03-19T13:47:58.448Z,50.30
2018-03-19T13:50:24.901Z,49.80
2018-03-19T13:52:51.342Z,51.20
2018-03-19T13:55:17.761Z,49.20
2018-03-19T13:57:44.216Z,50.10
2018-03-19T14:00:11.385Z,51.30
2018-03-19T14:02:37.805Z,51.30
2018-03-19T14:05:04.939Z,49.70
2018-03-19T14:07:31.447Z,49.70
2018-03-19T14:09:57.831Z,50.80
2018-03-19T14:12:24.226Z,50.70
2018-03-19T14:14:50.868Z,50.30
2018-03-19T14:17:17.406Z,50.00
2018-03-19T14:19:43.827Z,51.20
2018-03-19T14:22:10.475Z,51.40
2018-03-19T14:24:36.910Z,49.50
2018-03-19T14:27:03.343Z,50.80
2018-03-19T14:29:29.781Z,50.90
2018-03-19T14:31:56.189Z,49.20
2018-03-19T14:34:22.603Z,51.10
2018-03-19T14:36:49.029Z,50.00
2018-03-19T14:39:15.509Z,49.80
2018-03-19T14:41:41.916Z,51.50
2018-03-19T14:44:08.450Z,49.80
2018-03-19T14:46:34.909Z,50.10
2018-03-19T14:49:01.302Z,50.50
2018-03-19T14:51:27.876Z,50.20
2018-03-19T14:53:54.294Z,50.20
2018-03-19T14:56:20.751Z,50.00
2018-03-19T14:58:47.199Z,50.60
2018-03-19T15:01:13.685Z,52.40
2018-03-19T15:03:40.090Z,52.10
2018-03-19T15:06:06.497Z,51.60
2018-03-19T15:08:33.706Z,52.30
2018-03-19T15:11:00.260Z,52.30
2018-03-19T15:13:26.723Z,52.10
2018-03-19T15:15:53.211Z,51.10
2018-03-19T15:18:19.659Z,49.90
2018-03-19T15:20:46.058Z,50.10
2018-03-19T15:23:12.496Z,49.60
2018-03-19T15:25:38.902Z,50.20
2018-03-19T15:28:06.061Z,49.70
2018-03-19T15:30:32.505Z,49.60
2018-03-19T15:32:58.914Z,49.50
2018-03-19T15:35:25.618Z,49.20
2018-03-19T15:37:52.838Z,49.80
2018-03-19T15:40:19.240Z,49.80
2018-03-19T15:42:45.677Z,49.60
2018-03-19T15:45:12.091Z,49.20
2018-03-19T15:47:38.553Z,51.50
2018-03-19T15:50:05.013Z,50.00
2018-03-19T15:52:31.422Z,49.50
2018-03-19T15:54:57.898Z,47.70
2018-03-19T15:57:24.534Z,49.20
2018-03-19T15:59:50.938Z,47.30
2018-03-19T16:02:17.620Z,48.40
2018-03-19T16:04:44.803Z,49.50
2018-03-19T16:07:11.289Z,49.50
2018-03-19T16:09:37.819Z,49.20
2018-03-19T16:12:04.361Z,49.00
2018-03-19T16:14:30.805Z,49.50
2018-03-19T16:16:58.127Z,49.50
2018-03-19T16:19:24.592Z,49.40
2018-03-19T16:21:51.728Z,50.60
2018-03-19T16:24:18.200Z,50.60
2018-03-19T16:26:44.730Z,51.50
2018-03-19T16:29:11.190Z,52.10
2018-03-19T16:31:37.592Z,52.40
2018-03-19T16:34:04.870Z,52.40
2018-03-19T16:36:31.266Z,51.40
2018-03-19T16:38:57.732Z,52.10
2018-03-19T16:41:24.227Z,51.70
2018-03-19T16:43:51.581Z,52.00
2018-03-19T16:46:17.979Z,52.00
2018-03-19T16:48:44.435Z,52.70
2018-03-19T16:51:10.829Z,53.30
2018-03-19T16:53:37.287Z,53.20
2018-03-19T16:56:03.734Z,54.90
2018-03-19T16:58:30.124Z,56.30
2018-03-19T17:00:56.526Z,54.40
2018-03-19T17:03:23.698Z,55.10
2018-03-19T17:05:50.982Z,54.70
2018-03-19T17:08:17.423Z,54.60
2018-03-19T17:10:43.938Z,56.10
2018-03-19T17:13:10.372Z,56.50
2018-03-19T17:15:36.761Z,58.00
2018-03-19T17:18:03.976Z,59.30
2018-03-19T17:20:30.360Z,59.30
2018-03-19T17:22:56.940Z,61.10
2018-03-19T17:25:23.384Z,62.90
2018-03-19T17:27:49.928Z,65.80
2018-03-19T17:30:16.458Z,62.40
2018-03-19T17:32:43.663Z,65.10
2018-03-19T17:35:10.076Z,65.10
2018-03-19T17:37:36.579Z,65.10
2018-03-19T17:40:03.217Z,64.20
2018-03-19T17:42:29.695Z,65.70
2018-03-19T17:44:56.100Z,67.30
2018-03-19T17:47:23.305Z,69.40
2018-03-19T17:49:49.768Z,69.50
2018-03-19T17:52:16.308Z,72.60
2018-03-19T17:54:42.854Z,73.60
2018-03-19T17:57:10.089Z,75.50
2018-03-19T17:59:36.632Z,75.50
2018-03-19T18:02:03.135Z,74.90
2018-03-19T18:04:29.546Z,78.90
2018-03-19T18:06:56.027Z,80.30
2018-03-19T18:09:22.468Z,80.40
2018-03-19T18:11:48.882Z,81.30
2018-03-19T18:14:15.280Z,82.80
2018-03-19T18:16:41.866Z,86.90
2018-03-19T18:19:08.293Z,84.30
2018-03-19T18:21:35.502Z,84.20
2018-03-19T18:24:01.947Z,84.10
2018-03-19T18:26:28.361Z,85.60
2018-03-19T18:28:54.763Z,87.70
2018-03-19T18:31:21.991Z,92.60
2018-03-19T18:33:48.428Z,92.60
2018-03-19T18:36:14.914Z,91.70
2018-03-19T18:38:41.378Z,92.80
2018-03-19T18:41:07.803Z,94.60
2018-03-19T18:43:34.208Z,90.10
2018-03-19T18:46:01.352Z,92.30
2018-03-19T18:48:27.765Z,92.20
2018-03-19T18:50:54.279Z,90.50
2018-03-19T18:53:20.722Z,89.50
2018-03-19T18:55:47.967Z,87.70
2018-03-19T18:58:14.450Z,87.60
2018-03-19T19:00:40.895Z,91.30
2018-03-19T19:03:07.367Z,92.80
2018-03-19T19:05:33.760Z,95.90
2018-03-19T19:08:00.343Z,95.70
2018-03-19T19:10:27.489Z,97.70
2018-03-19T19:12:54.994Z,97.90
2018-03-19T19:15:21.473Z,97.80
2018-03-19T19:17:48.607Z,99.90
2018-03-19T19:20:15.031Z,99.90
2018-03-19T19:22:41.491Z,99.90
2018-03-19T19:25:07.965Z,99.90
2018-03-19T19:27:34.454Z,99.90
2018-03-19T19:30:01.660Z,99.90
2018-03-19T19:32:28.058Z,99.90
2018-03-19T19:34:55.214Z,99.90
2018-03-19T19:37:22.416Z,99.90
2018-03-19T19:39:48.882Z,99.90
2018-03-19T19:42:15.440Z,99.90
2018-03-19T19:44:42.644Z,99.90
2018-03-19T19:47:09.125Z,99.90
2018-03-19T19:49:35.603Z,99.90
2018-03-19T19:52:02.087Z,99.90
2018-03-19T19:54:29.255Z,99.90
2018-03-19T19:56:55.664Z,99.90
2018-03-19T19:59:22.079Z,99.90
2018-03-19T20:01:48.493Z,99.90
2018-03-19T20:04:15.048Z,99.90
2018-03-19T20:06:42.248Z,99.90
2018-03-19T20:09:09.742Z,99.90
2018-03-19T20:11:36.285Z,99.90
2018-03-19T20:14:02.768Z,99.90
2018-03-19T20:16:29.276Z,99.90
2018-03-19T20:18:56.539Z,99.90
2018-03-19T20:21:22.999Z,99.90
2018-03-19T20:23:49.567Z,99.90
2018-03-19T20:26:16.103Z,99.90
2018-03-19T20:28:42.731Z,99.90
2018-03-19T20:31:10.830Z,99.90
2018-03-19T20:33:37.344Z,99.90
2018-03-19T20:36:04.034Z,99.90
2018-03-19T20:38:30.550Z,99.90
2018-03-19T20:40:57.834Z,99.90
2018-03-19T20:43:24.313Z,99.90
2018-03-19T20:45:50.750Z,99.90
2018-03-19T20:48:17.259Z,99.90
2018-03-19T20:50:43.732Z,99.90
2018-03-19T20:53:10.577Z,99.90
2018-03-19T20:55:37.097Z,99.90
2018-03-19T20:58:03.836Z,99.90
2018-03-19T21:00:31.113Z,99.90
2018-03-19T21:02:57.584Z,99.90
2018-03-19T21:05:24.139Z,99.90
2018-03-19T21:07:51.425Z,99.90
2018-03-19T21:10:18.595Z,99.90
2018-03-19T21:12:45.159Z,99.90
2018-03-19T21:15:11.656Z,99.90
2018-03-19T21:17:38.119Z,99.90
2018-03-19T21:20:04.615Z,99.90
2018-03-19T21:22:31.153Z,99.90
2018-03-19T21:24:58.606Z,99.90
2018-03-19T21:27:26.169Z,99.90
2018-03-19T21:29:53.423Z,99.90
2018-03-19T21:32:20.606Z,99.90
2018-03-19T21:34:47.215Z,99.90
2018-03-19T21:37:13.713Z,99.90
2018-03-19T21:39:41.076Z,99.90
2018-03-19T21:42:07.730Z,99.90
2018-03-19T21:44:34.948Z,99.90
2018-03-19T21:47:01.402Z,99.90
2018-03-19T21:49:28.274Z,99.90
2018-03-19T21:51:55.226Z,99.90
2018-03-19T21:54:22.240Z,99.90
2018-03-19T21:56:49.114Z,99.90
2018-03-19T21:59:15.519Z,99.90
2018-03-19T22:01:49.510Z,99.90
2018-03-19T22:04:16.188Z,99.90
2018-03-19T22:06:42.690Z,99.90
2018-03-19T22:09:09.179Z,99.90
2018-03-19T22:11:35.647Z,99.90
2018-03-19T22:14:02.116Z,99.90
2018-03-19T22:16:29.311Z,99.90
2018-03-19T22:18:55.734Z,99.90
2018-03-19T22:21:22.138Z,99.90
2018-03-19T22:23:49.379Z,99.90
2018-03-19T22:26:15.914Z,99.90
2018-03-19T22:28:42.441Z,99.90
2018-03-19T22:31:08.927Z,99.90
2018-03-19T22:33:36.050Z,98.20
2018-03-19T22:36:02.495Z,98.20
2018-03-19T22:38:29.016Z,97.80
2018-03-19T22:40:56.163Z,95.20
2018-03-19T22:43:22.789Z,95.20
2018-03-19T22:45:49.323Z,95.50
2018-03-19T22:48:16.491Z,94.60
2018-03-19T22:50:42.956Z,94.60
2018-03-19T22:53:09.468Z,95.40
2018-03-19T22:55:36.656Z,95.10
2018-03-19T22:58:03.308Z,95.10
2018-03-19T23:00:37.427Z,94.90
2018-03-19T23:03:03.861Z,94.20
2018-03-19T23:05:30.301Z,94.00
2018-03-19T23:07:56.735Z,94.30
2018-03-19T23:10:23.268Z,93.40
2018-03-19T23:12:49.670Z,94.70
2018-03-19T23:15:16.135Z,95.80
2018-03-19T23:17:42.527Z,95.80
2018-03-19T23:20:09.115Z,96.30
2018-03-19T23:22:35.647Z,95.40
2018-03-19T23:25:02.827Z,93.10
2018-03-19T23:27:30.017Z,93.80
2018-03-19T23:29:56.439Z,93.50
2018-03-19T23:32:23.123Z,92.00
2018-03-19T23:34:49.656Z,93.50
2018-03-19T23:37:17.524Z,92.00
2018-03-19T23:39:43.946Z,92.10
2018-03-19T23:42:10.492Z,92.40
2018-03-19T23:44:36.957Z,93.30
2018-03-19T23:47:03.394Z,92.80
2018-03-19T23:49:29.803Z,91.50
2018-03-19T23:51:56.977Z,90.30
2018-03-19T23:54:28.538Z,90.30
2018-03-19T23:56:54.994Z,90.50
2018-03-19T23:59:21.437Z,88.30
